»·PEaware :: N1106G KBLH-L35

N1106G :: KBLH-L35

FLIGHT INFORMATION

Flight Status: Arrived
Operator: Privately registered:
United States
More flights under this callsign
Pilot: Mark M. (8477)
Aircraft: Unknown
(DA62)
More flights by this aircraft type
Origin: KBLH Blythe
United States
Destination: L35 Big Bear City
United States
More flights between these airports :: More routes between these airports
Route: TNP
File this flight plan on PilotEdge
Remarks: Sample flight plan
Altitude:
(Current/Filed)
6,500ft
Speed:
(Current/Filed)
150kts
Departed: 31-Mar-18 10:33 AM
Arrived: 31-Mar-18 11:41 AM
Distance/Time
Traveled:
113nm/1:08
Distance/Time
To Go:
Arrived

Flight Plot

Page will automatically refresh every two minutes.

Flight plan parsing failed; only flown route is shown


Map Options




Map Legend


Flown Route
Filed Route
Departure Airport
Arrival Airport
Navaid (VOR, NDB)
Fix

Horizontal Profiles

Position Reports

Time Latitude Longitude Heading Altitude Ground
Speed
31-Mar-18 10:24 33.614051 -114.713081 91 394ft 0kts
31-Mar-18 10:25 33.614051 -114.713081 91 394ft 0kts
31-Mar-18 10:26 33.614419 -114.712970 2 394ft 2kts
31-Mar-18 10:27 33.615160 -114.711431 90 394ft 12kts
31-Mar-18 10:28 33.615170 -114.707168 74 394ft 9kts
31-Mar-18 10:29 33.615439 -114.706584 58 394ft 0kts
31-Mar-18 10:30 33.615454 -114.706553 58 394ft 2kts
31-Mar-18 10:31 33.616540 -114.707007 275 394ft 13kts
31-Mar-18 10:32 33.616395 -114.729309 259 807ft 81kts
31-Mar-18 10:33 33.611686 -114.756382 267 1515ft 86kts
31-Mar-18 10:34 33.611876 -114.792883 268 1409ft 127kts
31-Mar-18 10:35 33.611930 -114.841087 268 1335ft 153kts
31-Mar-18 10:36 33.611997 -114.891575 268 1251ft 149kts
31-Mar-18 10:37 33.611832 -114.941152 268 1167ft 146kts
31-Mar-18 10:38 33.611685 -114.989117 268 1083ft 142kts
31-Mar-18 10:39 33.617028 -115.034538 306 963ft 141kts
31-Mar-18 10:40 33.641862 -115.070489 307 881ft 138kts
31-Mar-18 10:41 33.666352 -115.105651 308 800ft 136kts
31-Mar-18 10:42 33.690396 -115.140113 308 729ft 133kts
31-Mar-18 10:43 33.714422 -115.165815 343 1204ft 106kts
31-Mar-18 10:44 33.743072 -115.172561 342 1619ft 104kts
31-Mar-18 10:45 33.766853 -115.180327 339 1906ft 107kts
31-Mar-18 10:46 33.798297 -115.203308 317 1999ft 125kts
31-Mar-18 10:47 33.823897 -115.230775 315 2107ft 120kts
31-Mar-18 10:48 33.849057 -115.257631 335 2094ft 121kts
31-Mar-18 10:49 33.875828 -115.261157 352 2110ft 113kts
31-Mar-18 10:50 33.909524 -115.264311 352 2118ft 138kts
31-Mar-18 10:51 33.956704 -115.269207 352 2110ft 149kts
31-Mar-18 10:52 33.998109 -115.273540 352 2108ft 148kts
31-Mar-18 10:53 34.036962 -115.278756 352 2414ft 131kts
31-Mar-18 10:54 34.065716 -115.283237 352 2798ft 121kts
31-Mar-18 10:55 34.100686 -115.288662 352 3300ft 133kts
31-Mar-18 10:56 34.137888 -115.294396 352 3784ft 138kts
31-Mar-18 10:57 34.147684 -115.262792 144 4101ft 141kts
31-Mar-18 10:58 34.116948 -115.254446 167 4465ft 139kts
31-Mar-18 10:59 34.092125 -115.249340 167 4778ft 138kts
31-Mar-18 11:00 34.054962 -115.239961 167 5249ft 137kts
31-Mar-18 11:01 34.017241 -115.230623 170 5723ft 139kts
31-Mar-18 11:02 33.999684 -115.262282 268 6092ft 138kts
31-Mar-18 11:03 34.000756 -115.308157 268 6499ft 141kts
31-Mar-18 11:04 34.001702 -115.358647 268 6499ft 157kts
31-Mar-18 11:05 34.000989 -115.412127 268 6521ft 159kts
31-Mar-18 11:06 34.000527 -115.464509 268 6604ft 157kts
31-Mar-18 11:07 33.994782 -115.516397 248 6609ft 157kts
31-Mar-18 11:08 34.005788 -115.564845 297 6604ft 161kts
31-Mar-18 11:09 34.029280 -115.611416 300 6605ft 163kts
31-Mar-18 11:10 34.051941 -115.655657 299 6606ft 162kts
31-Mar-18 11:11 34.071542 -115.694521 299 6606ft 162kts
31-Mar-18 11:12 34.094219 -115.741245 297 6604ft 162kts
31-Mar-18 11:13 34.117027 -115.789693 269 6612ft 167kts
31-Mar-18 11:14 34.119920 -115.845967 275 6604ft 170kts
31-Mar-18 11:15 34.127267 -115.902934 275 6661ft 165kts
31-Mar-18 11:16 34.134147 -115.955781 275 7116ft 157kts
31-Mar-18 11:17 34.140799 -116.007171 274 7576ft 156kts
31-Mar-18 11:18 34.147357 -116.058690 275 8045ft 155kts
31-Mar-18 11:19 34.153925 -116.110353 275 8481ft 157kts
31-Mar-18 11:20 34.160648 -116.163707 275 8495ft 161kts
31-Mar-18 11:21 34.167366 -116.217108 275 8495ft 161kts
31-Mar-18 11:22 34.173900 -116.268708 275 8860ft 147kts
31-Mar-18 11:23 34.179979 -116.316812 274 9424ft 143kts
31-Mar-18 11:24 34.185920 -116.364023 274 9990ft 142kts
31-Mar-18 11:25 34.191778 -116.411369 274 10487ft 146kts
31-Mar-18 11:26 34.198114 -116.463443 274 10496ft 163kts
31-Mar-18 11:27 34.204772 -116.517936 273 10495ft 164kts
31-Mar-18 11:28 34.229325 -116.565196 303 10493ft 170kts
31-Mar-18 11:29 34.256056 -116.605766 302 10501ft 171kts
31-Mar-18 11:30 34.270189 -116.653872 256 10614ft 167kts
31-Mar-18 11:31 34.262881 -116.686393 247 10608ft 169kts
31-Mar-18 11:32 34.246181 -116.740045 246 10486ft 174kts
31-Mar-18 11:33 34.229290 -116.796181 248 10048ft 180kts
31-Mar-18 11:34 34.212976 -116.851938 244 9622ft 179kts
31-Mar-18 11:35 34.204154 -116.905793 305 9047ft 174kts
31-Mar-18 11:36 34.243370 -116.891864 56 8415ft 167kts
31-Mar-18 11:37 34.248332 -116.839579 89 8100ft 144kts
31-Mar-18 11:38 34.263285 -116.818802 272 7911ft 101kts
31-Mar-18 11:39 34.263826 -116.850168 267 6756ft 66kts
31-Mar-18 11:40 34.263499 -116.859122 178 6752ft 2kts
31-Mar-18 11:41 34.262873 -116.859461 178 6752ft 2kts
31-Mar-18 11:42 34.262805 -116.859459 178 6752ft 0kts

Navigation Log

Ident Type
Flight plan parsing failed, navigation log unavailable